createdAt,value
2019-04-21T00:02:23.537Z,30.02
2019-04-21T00:04:59.390Z,33.67
2019-04-21T00:07:36.302Z,31.82
2019-04-21T00:10:13.642Z,30.02
2019-04-21T00:12:38.673Z,37.85
2019-04-21T00:14:57.895Z,39.50
2019-04-21T00:17:21.716Z,43.60
2019-04-21T00:19:55.378Z,33.85
2019-04-21T00:22:34.158Z,33.95
2019-04-21T00:25:07.701Z,32.98
2019-04-21T00:27:38.304Z,39.92
2019-04-21T00:30:12.185Z,35.85
2019-04-21T00:32:38.147Z,31.40
2019-04-21T00:34:59.099Z,31.90
2019-04-21T00:37:45.146Z,42.80
2019-04-21T00:40:21.106Z,29.35
2019-04-21T00:42:43.003Z,30.15
2019-04-21T00:45:11.975Z,30.62
2019-04-21T00:47:46.162Z,30.30
2019-04-21T00:50:17.726Z,26.85
2019-04-21T00:53:05.514Z,31.20
2019-04-21T00:58:00.058Z,34.53
2019-04-21T01:00:27.742Z,33.45
2019-04-21T01:03:06.687Z,33.28
2019-04-21T01:05:26.970Z,30.85
2019-04-21T01:08:02.490Z,31.80
2019-04-21T01:10:24.248Z,30.97
2019-04-21T01:13:02.988Z,30.62
2019-04-21T01:15:37.347Z,35.75
2019-04-21T01:18:06.154Z,35.00
2019-04-21T01:20:17.400Z,30.37
2019-04-21T01:22:42.694Z,32.55
2019-04-21T01:25:20.169Z,36.23
2019-04-21T01:27:59.676Z,33.05
2019-04-21T01:30:34.673Z,29.15
2019-04-21T01:33:08.126Z,29.10
2019-04-21T01:35:34.311Z,29.02
2019-04-21T01:38:06.871Z,34.38
2019-04-21T01:40:33.755Z,30.88
2019-04-21T01:43:06.106Z,35.55
2019-04-21T01:45:31.696Z,29.07
2019-04-21T01:48:02.501Z,37.00
2019-04-21T01:50:36.329Z,30.12
2019-04-21T01:53:15.562Z,30.23
2019-04-21T01:55:43.130Z,31.75
2019-04-21T01:58:11.713Z,29.40
2019-04-21T02:00:45.582Z,30.72
2019-04-21T02:03:38.845Z,29.48
2019-04-21T02:05:53.222Z,31.17
2019-04-21T02:08:18.229Z,29.90
2019-04-21T02:10:54.594Z,30.88
2019-04-21T02:13:17.136Z,29.05
2019-04-21T02:15:56.075Z,23.38
2019-04-21T02:18:24.800Z,24.18
2019-04-21T02:20:41.212Z,33.10
2019-04-21T02:26:01.850Z,25.05
2019-04-21T02:28:28.205Z,26.82
2019-04-21T02:33:39.117Z,26.55
2019-04-21T02:36:23.320Z,28.50
2019-04-21T02:38:39.364Z,22.85
2019-04-21T02:40:57.948Z,25.08
2019-04-21T02:43:39.955Z,21.75
2019-04-21T02:48:43.339Z,24.85
2019-04-21T02:51:11.765Z,23.87
2019-04-21T02:54:06.793Z,24.32
2019-04-21T02:56:09.660Z,27.40
2019-04-21T02:58:41.964Z,28.90
2019-04-21T03:01:23.895Z,22.67
2019-04-21T03:04:04.783Z,20.80
2019-04-21T03:06:29.007Z,25.75
2019-04-21T03:09:16.009Z,27.37
2019-04-21T03:11:24.304Z,26.33
2019-04-21T03:16:32.970Z,21.35
2019-04-21T03:19:06.381Z,23.18
2019-04-21T03:21:38.686Z,27.02
2019-04-21T03:29:11.996Z,23.22
2019-04-21T03:39:09.511Z,20.40
2019-04-21T03:41:37.997Z,26.37
2019-04-21T03:44:09.873Z,23.77
2019-04-21T03:46:41.286Z,23.38
2019-04-21T03:49:20.773Z,21.48
2019-04-21T03:51:35.915Z,23.10
2019-04-21T03:54:07.915Z,24.92
2019-04-21T03:57:03.178Z,24.43
2019-04-21T03:59:09.610Z,26.23
2019-04-21T04:01:49.948Z,20.88
2019-04-21T04:07:28.880Z,21.87
2019-04-21T04:12:04.738Z,25.65
2019-04-21T04:14:40.180Z,20.72
2019-04-21T04:19:45.382Z,20.15
2019-04-21T04:24:39.148Z,24.50
2019-04-21T04:27:07.976Z,26.70
2019-04-21T04:29:32.082Z,23.77
2019-04-21T04:32:21.139Z,25.37
2019-04-21T04:34:41.657Z,24.67
2019-04-21T04:37:14.198Z,20.65
2019-04-21T04:42:24.718Z,22.85
2019-04-21T04:47:18.418Z,22.07
2019-04-21T04:52:31.723Z,21.97
2019-04-21T04:55:00.582Z,24.63
2019-04-21T04:57:21.841Z,26.48
2019-04-21T05:00:25.792Z,24.82
2019-04-21T05:07:27.347Z,26.33
2019-04-21T05:09:58.906Z,20.80
2019-04-21T05:12:15.767Z,20.57
2019-04-21T05:17:30.645Z,21.27
2019-04-21T05:20:02.554Z,27.07
2019-04-21T05:22:22.341Z,21.73
2019-04-21T05:24:37.708Z,26.50
2019-04-21T05:27:07.597Z,24.12
2019-04-21T05:29:59.978Z,23.30
2019-04-21T05:32:37.388Z,23.15
2019-04-21T05:35:16.960Z,25.77
2019-04-21T05:37:51.340Z,22.75
2019-04-21T05:40:15.641Z,24.87
2019-04-21T05:42:48.599Z,21.60
2019-04-21T05:45:25.467Z,24.15
2019-04-21T05:50:35.035Z,26.42
2019-04-21T05:52:58.523Z,26.62
2019-04-21T05:58:08.253Z,24.85
2019-04-21T06:00:59.713Z,25.32
2019-04-21T06:03:19.283Z,28.98
2019-04-21T06:06:05.399Z,20.60
2019-04-21T06:08:13.230Z,22.37
2019-04-21T06:10:41.891Z,24.12
2019-04-21T06:13:13.788Z,19.17
2019-04-21T06:15:42.933Z,23.35
2019-04-21T06:18:13.884Z,19.17
2019-04-21T06:20:40.710Z,16.80
2019-04-21T06:23:12.065Z,19.60
2019-04-21T06:25:57.507Z,18.87
2019-04-21T06:28:14.855Z,25.37
2019-04-21T06:30:53.021Z,19.25
2019-04-21T06:33:15.781Z,25.17
2019-04-21T06:38:54.419Z,20.57
2019-04-21T06:41:22.777Z,19.70
2019-04-21T06:43:48.438Z,13.40
2019-04-21T06:46:24.167Z,17.37
2019-04-21T06:48:49.365Z,10.43
2019-04-21T06:51:20.273Z,14.50
2019-04-21T06:53:52.438Z,13.93
2019-04-21T06:56:15.234Z,14.07
2019-04-21T06:58:43.795Z,11.75
2019-04-21T07:01:19.019Z,14.10
2019-04-21T07:03:49.393Z,13.35
2019-04-21T07:06:13.140Z,17.98
2019-04-21T07:08:53.265Z,14.75
2019-04-21T07:11:14.773Z,16.27
2019-04-21T07:13:49.017Z,14.83
2019-04-21T07:16:18.903Z,12.25
2019-04-21T07:18:54.063Z,11.78
2019-04-21T07:21:19.677Z,11.40
2019-04-21T07:23:53.870Z,20.02
2019-04-21T07:26:19.407Z,14.10
2019-04-21T07:28:57.129Z,16.50
2019-04-21T07:31:29.160Z,11.63
2019-04-21T07:34:11.078Z,16.90
2019-04-21T07:36:33.531Z,23.40
2019-04-21T07:38:49.791Z,13.78
2019-04-21T07:41:16.232Z,10.90
2019-04-21T07:43:57.113Z,11.87
2019-04-21T07:46:27.285Z,15.03
2019-04-21T07:48:59.962Z,17.47
2019-04-21T07:51:52.158Z,13.10
2019-04-21T07:54:29.086Z,18.10
2019-04-21T07:56:32.987Z,17.92
2019-04-21T07:59:20.379Z,12.03
2019-04-21T08:01:51.950Z,15.77
2019-04-21T08:04:38.023Z,12.30
2019-04-21T08:06:52.119Z,10.80
2019-04-21T08:09:19.837Z,13.47
2019-04-21T08:14:31.661Z,15.07
2019-04-21T08:16:57.294Z,12.73
2019-04-21T08:19:28.739Z,14.33
2019-04-21T08:22:07.763Z,9.30
2019-04-21T08:24:27.362Z,14.17
2019-04-21T08:27:01.758Z,13.97
2019-04-21T08:29:33.225Z,15.97
2019-04-21T08:32:02.843Z,13.97
2019-04-21T08:37:00.583Z,13.53
2019-04-21T08:39:56.976Z,14.77
2019-04-21T08:42:19.816Z,12.73
2019-04-21T08:44:57.593Z,17.00
2019-04-21T08:47:25.515Z,10.40
2019-04-21T08:49:55.867Z,17.43
2019-04-21T08:52:39.624Z,12.33
2019-04-21T08:55:05.383Z,14.00
2019-04-21T08:57:53.398Z,12.17
2019-04-21T09:00:19.759Z,10.30
2019-04-21T09:03:09.186Z,25.77
2019-04-21T09:05:40.991Z,13.13
2019-04-21T09:08:12.022Z,13.90
2019-04-21T09:10:35.467Z,16.30
2019-04-21T09:13:04.291Z,15.97
2019-04-21T09:15:36.920Z,13.23
2019-04-21T09:18:05.309Z,13.87
2019-04-21T09:23:08.150Z,12.47
2019-04-21T09:25:44.829Z,15.37
2019-04-21T09:28:03.982Z,14.37
2019-04-21T09:30:19.906Z,13.53
2019-04-21T09:32:53.160Z,19.83
2019-04-21T09:35:20.078Z,15.13
2019-04-21T09:37:57.291Z,19.43
2019-04-21T09:40:27.372Z,13.13
2019-04-21T09:42:55.994Z,15.90
2019-04-21T09:45:22.560Z,13.43
2019-04-21T09:47:58.996Z,12.20
2019-04-21T09:50:22.098Z,17.23
2019-04-21T09:52:57.902Z,11.30
2019-04-21T09:55:24.311Z,12.37
2019-04-21T09:57:56.762Z,15.13
2019-04-21T10:00:25.419Z,14.03
2019-04-21T10:03:00.630Z,20.17
2019-04-21T10:05:25.080Z,15.00
2019-04-21T10:07:55.256Z,17.27
2019-04-21T10:10:27.410Z,12.73
2019-04-21T10:12:57.674Z,18.90
2019-04-21T10:15:30.214Z,13.93
2019-04-21T10:18:00.930Z,12.07
2019-04-21T10:20:33.009Z,13.30
2019-04-21T10:23:02.921Z,19.60
2019-04-21T10:25:36.687Z,16.87
2019-04-21T10:28:05.790Z,12.63
2019-04-21T10:30:34.772Z,14.97
2019-04-21T10:33:10.337Z,17.33
2019-04-21T10:35:41.387Z,18.37
2019-04-21T10:38:22.971Z,13.63
2019-04-21T10:40:43.368Z,14.37
2019-04-21T10:43:14.211Z,11.90
2019-04-21T10:45:43.936Z,11.47
2019-04-21T10:48:14.611Z,13.07
2019-04-21T10:50:43.321Z,12.13
2019-04-21T10:53:14.519Z,14.30
2019-04-21T10:55:57.804Z,16.47
2019-04-21T10:58:16.212Z,12.87
2019-04-21T11:00:48.293Z,14.90
2019-04-21T11:03:35.261Z,13.10
2019-04-21T11:06:10.553Z,11.10
2019-04-21T11:08:45.019Z,14.37
2019-04-21T11:11:12.067Z,12.17
2019-04-21T11:13:42.340Z,9.77
2019-04-21T11:16:12.988Z,10.87
2019-04-21T11:18:42.477Z,11.60
2019-04-21T11:21:11.372Z,18.70
2019-04-21T11:23:40.559Z,13.33
2019-04-21T11:26:12.286Z,9.87
2019-04-21T11:28:43.050Z,10.37
2019-04-21T11:31:13.266Z,16.90
2019-04-21T11:33:45.114Z,12.20
2019-04-21T11:36:15.297Z,12.83
2019-04-21T11:39:05.631Z,11.30
2019-04-21T11:41:16.237Z,12.77
2019-04-21T11:43:46.249Z,13.80
2019-04-21T11:46:16.253Z,10.23
2019-04-21T11:48:46.089Z,11.77
2019-04-21T11:51:15.209Z,9.80
2019-04-21T11:53:44.134Z,11.33
2019-04-21T11:56:14.689Z,10.00
2019-04-21T11:58:43.997Z,8.83
2019-04-21T12:01:13.887Z,11.53
2019-04-21T12:03:43.629Z,9.60
2019-04-21T12:06:13.373Z,15.73
2019-04-21T12:08:47.612Z,11.67
2019-04-21T12:11:13.942Z,11.23
2019-04-21T12:13:42.633Z,9.00
2019-04-21T12:16:16.857Z,8.83
2019-04-21T12:18:45.449Z,8.20
2019-04-21T12:21:15.713Z,7.93
2019-04-21T12:23:44.877Z,9.00
2019-04-21T12:26:14.062Z,14.57
2019-04-21T12:28:43.976Z,9.27
2019-04-21T12:31:14.258Z,9.93
2019-04-21T12:33:58.168Z,8.63
2019-04-21T12:36:29.527Z,7.53
2019-04-21T12:39:18.625Z,15.30
2019-04-21T12:41:48.734Z,10.10
2019-04-21T12:44:37.420Z,23.27
2019-04-21T12:47:08.018Z,9.03
2019-04-21T12:49:56.909Z,9.93
2019-04-21T12:52:27.375Z,10.83
2019-04-21T12:54:57.639Z,8.70
2019-04-21T12:57:30.245Z,8.30
2019-04-21T13:00:00.402Z,10.10
2019-04-21T13:02:31.682Z,9.13
2019-04-21T13:05:03.672Z,8.63
2019-04-21T13:07:33.195Z,8.10
2019-04-21T13:10:02.504Z,9.10
2019-04-21T13:12:33.178Z,5.97
2019-04-21T13:15:06.448Z,5.93
2019-04-21T13:17:37.345Z,5.93
2019-04-21T13:20:11.588Z,8.67
2019-04-21T13:22:41.927Z,9.70
2019-04-21T13:25:11.897Z,10.03
2019-04-21T13:27:43.063Z,7.70
2019-04-21T13:30:14.658Z,7.80
2019-04-21T13:32:45.098Z,11.77
2019-04-21T13:35:15.056Z,7.67
2019-04-21T13:37:43.811Z,6.93
2019-04-21T13:40:44.966Z,6.60
2019-04-21T13:43:02.117Z,5.80
2019-04-21T13:45:32.215Z,7.37
2019-04-21T13:48:04.510Z,5.43
2019-04-21T13:50:35.182Z,6.83
2019-04-21T13:53:04.957Z,9.03
2019-04-21T13:55:36.938Z,6.90
2019-04-21T13:58:06.369Z,11.33
2019-04-21T14:00:35.859Z,5.83
2019-04-21T14:03:06.962Z,9.03
2019-04-21T14:05:38.218Z,7.10
2019-04-21T14:08:09.142Z,7.70
2019-04-21T14:10:39.808Z,10.23
2019-04-21T14:13:09.277Z,5.30
2019-04-21T14:15:39.862Z,7.87
2019-04-21T14:18:11.013Z,5.20
2019-04-21T14:20:40.485Z,8.13
2019-04-21T14:23:20.999Z,8.67
2019-04-21T14:25:41.687Z,11.13
2019-04-21T14:28:10.505Z,7.53
2019-04-21T14:30:40.391Z,8.67
2019-04-21T14:33:10.023Z,5.77
2019-04-21T14:35:39.146Z,9.77
2019-04-21T14:38:09.050Z,7.50
2019-04-21T14:40:38.789Z,8.50
2019-04-21T14:43:08.135Z,5.23
2019-04-21T14:45:52.795Z,7.87
2019-04-21T14:48:41.247Z,4.73
2019-04-21T14:51:14.450Z,10.27
2019-04-21T14:53:57.907Z,5.33
2019-04-21T14:56:29.245Z,5.30
2019-04-21T14:59:00.564Z,7.43
2019-04-21T15:01:29.287Z,4.63
2019-04-21T15:03:59.784Z,7.33
2019-04-21T15:06:31.533Z,5.67
2019-04-21T15:09:00.959Z,7.43
2019-04-21T15:11:30.191Z,5.30
2019-04-21T15:13:59.803Z,5.83
2019-04-21T15:16:29.201Z,7.27
2019-04-21T15:18:58.981Z,5.63
2019-04-21T15:21:29.130Z,6.13
2019-04-21T15:24:02.904Z,9.90
2019-04-21T15:26:33.482Z,4.07
2019-04-21T15:29:04.591Z,7.87
2019-04-21T15:31:37.421Z,4.87
2019-04-21T15:34:05.384Z,4.37
2019-04-21T15:36:35.200Z,4.23
2019-04-21T15:39:09.552Z,3.63
2019-04-21T15:41:38.293Z,6.17
2019-04-21T15:44:09.885Z,3.33
2019-04-21T15:46:39.894Z,4.77
2019-04-21T15:49:09.195Z,5.87
2019-04-21T15:51:38.056Z,11.53
2019-04-21T15:54:07.316Z,7.83
2019-04-21T15:56:38.534Z,6.53
2019-04-21T15:59:22.231Z,4.40
2019-04-21T16:01:54.615Z,5.10
2019-04-21T16:04:25.098Z,7.03
2019-04-21T16:06:57.374Z,5.57
2019-04-21T16:09:28.895Z,4.97
2019-04-21T16:12:01.896Z,6.43
2019-04-21T16:14:32.463Z,6.93
2019-04-21T16:17:03.353Z,3.77
2019-04-21T16:19:33.350Z,4.30
2019-04-21T16:22:03.205Z,3.57
2019-04-21T16:24:33.701Z,5.87
2019-04-21T16:27:06.654Z,3.03
2019-04-21T16:29:34.080Z,3.67
2019-04-21T16:32:03.011Z,6.00
2019-04-21T16:34:40.327Z,4.80
2019-04-21T16:37:03.628Z,4.33
2019-04-21T16:39:35.476Z,6.50
2019-04-21T16:42:07.063Z,6.53
2019-04-21T16:44:36.801Z,4.33
2019-04-21T16:47:07.499Z,4.93
2019-04-21T16:49:37.914Z,5.83
2019-04-21T16:52:25.896Z,12.27
2019-04-21T16:55:10.970Z,8.30
2019-04-21T16:57:44.150Z,9.10
2019-04-21T17:00:26.849Z,3.87
2019-04-21T17:02:46.358Z,6.60
2019-04-21T17:05:16.245Z,24.03
2019-04-21T17:07:45.441Z,4.87
2019-04-21T17:10:14.837Z,6.00
2019-04-21T17:12:43.513Z,6.17
2019-04-21T17:15:29.371Z,3.17
2019-04-21T17:18:00.758Z,3.60
2019-04-21T17:20:25.917Z,7.53
2019-04-21T17:22:43.849Z,6.53
2019-04-21T17:25:14.150Z,8.00
2019-04-21T17:27:42.950Z,4.93
2019-04-21T17:30:14.752Z,5.80
2019-04-21T17:32:48.359Z,5.43
2019-04-21T17:35:14.287Z,5.00
2019-04-21T17:37:42.957Z,3.50
2019-04-21T17:40:11.777Z,5.17
2019-04-21T17:42:47.453Z,4.60
2019-04-21T17:45:10.961Z,3.60
2019-04-21T17:47:48.219Z,5.90
2019-04-21T17:50:25.310Z,6.17
2019-04-21T17:53:04.962Z,5.17
2019-04-21T17:55:36.940Z,6.17
2019-04-21T17:58:21.996Z,6.97
2019-04-21T18:01:10.041Z,6.10
2019-04-21T18:03:42.103Z,2.87
2019-04-21T18:05:50.251Z,3.73
2019-04-21T18:08:29.501Z,6.20
2019-04-21T18:10:49.436Z,5.33
2019-04-21T18:13:14.521Z,5.13
2019-04-21T18:16:00.139Z,8.20
2019-04-21T18:18:12.446Z,9.47
2019-04-21T18:20:46.074Z,8.80
2019-04-21T18:23:34.911Z,9.17
2019-04-21T18:26:01.653Z,8.97
2019-04-21T18:28:26.261Z,8.00
2019-04-21T18:30:58.345Z,6.40
2019-04-21T18:33:33.846Z,19.50
2019-04-21T18:36:04.233Z,7.73
2019-04-21T18:39:10.320Z,9.70
2019-04-21T18:41:32.124Z,8.00
2019-04-21T18:44:36.576Z,4.92
2019-04-21T18:47:13.292Z,7.22
2019-04-21T18:52:42.658Z,8.70
2019-04-21T18:55:16.582Z,7.65
2019-04-21T18:57:42.756Z,8.68
2019-04-21T19:00:18.196Z,6.20
2019-04-21T19:02:45.594Z,7.62
2019-04-21T19:05:27.340Z,10.08
2019-04-21T19:08:14.700Z,6.75
2019-04-21T19:10:50.745Z,6.08
2019-04-21T19:19:10.014Z,10.95
2019-04-21T19:21:24.490Z,6.80
2019-04-21T19:24:10.675Z,6.25
2019-04-21T19:32:21.246Z,8.03
2019-04-21T19:35:07.529Z,6.28
2019-04-21T19:37:49.130Z,11.40
2019-04-21T19:40:29.028Z,7.42
2019-04-21T19:42:55.178Z,7.90
2019-04-21T19:45:27.904Z,8.83
2019-04-21T19:48:03.832Z,6.58
2019-04-21T19:50:35.010Z,7.10
2019-04-21T19:52:51.967Z,7.60
2019-04-21T19:55:14.226Z,7.65
2019-04-21T19:57:43.173Z,8.80
2019-04-21T20:00:13.557Z,7.90
2019-04-21T20:02:42.803Z,7.78
2019-04-21T20:05:20.432Z,6.78
2019-04-21T20:08:01.559Z,6.53
2019-04-21T20:10:33.026Z,5.62
2019-04-21T20:13:02.944Z,6.75
2019-04-21T20:15:36.058Z,10.40
2019-04-21T20:18:00.281Z,8.28
2019-04-21T20:20:15.492Z,7.12
2019-04-21T20:22:50.485Z,8.63
2019-04-21T20:25:34.434Z,9.88
2019-04-21T20:28:09.628Z,11.28
2019-04-21T20:30:47.191Z,9.73
2019-04-21T20:33:43.051Z,8.63
2019-04-21T20:35:58.704Z,10.85
2019-04-21T20:38:19.358Z,16.20
2019-04-21T20:40:50.915Z,8.88
2019-04-21T20:43:44.112Z,7.58
2019-04-21T20:46:11.885Z,10.05
2019-04-21T20:48:42.822Z,13.30
2019-04-21T20:54:07.379Z,8.53
2019-04-21T20:56:45.155Z,8.08
2019-04-21T21:02:17.233Z,13.25
2019-04-21T21:04:45.517Z,10.23
2019-04-21T21:07:45.916Z,10.78
2019-04-21T21:10:26.162Z,14.00
2019-04-21T21:13:08.926Z,10.43
2019-04-21T21:15:30.312Z,12.15
2019-04-21T21:18:06.288Z,13.08
2019-04-21T21:23:53.356Z,9.88
2019-04-21T21:26:43.954Z,12.03
2019-04-21T21:29:33.061Z,10.65
2019-04-21T21:32:09.748Z,11.63
2019-04-21T21:34:56.981Z,13.30
2019-04-21T21:37:38.083Z,11.12
2019-04-21T21:40:07.861Z,12.00
2019-04-21T21:42:23.144Z,12.23
2019-04-21T21:44:55.943Z,9.50
2019-04-21T21:47:39.460Z,10.35
2019-04-21T21:50:19.930Z,13.72
2019-04-21T21:52:47.912Z,11.20
2019-04-21T21:55:15.840Z,9.35
2019-04-21T21:57:49.939Z,10.48
2019-04-21T22:01:45.733Z,10.32
2019-04-21T22:04:52.884Z,10.95
2019-04-21T22:07:42.563Z,10.70
2019-04-21T22:13:49.104Z,12.05
2019-04-21T22:16:57.834Z,10.18
2019-04-21T22:20:02.973Z,11.70
2019-04-21T22:28:40.853Z,8.75
2019-04-21T22:34:38.699Z,17.12
2019-04-21T22:47:12.104Z,11.25
2019-04-21T22:49:37.117Z,11.38
2019-04-21T22:52:11.318Z,10.30
2019-04-21T22:54:42.794Z,9.18
2019-04-21T22:57:16.170Z,9.90
2019-04-21T22:59:40.539Z,10.82
2019-04-21T23:02:15.213Z,8.08
2019-04-21T23:04:58.252Z,7.15
2019-04-21T23:07:32.926Z,11.48
2019-04-21T23:10:03.352Z,10.58
2019-04-21T23:12:43.894Z,9.68
2019-04-21T23:15:18.956Z,10.18
2019-04-21T23:18:00.797Z,10.45
2019-04-21T23:20:38.739Z,10.85
2019-04-21T23:23:19.163Z,9.90
2019-04-21T23:25:44.268Z,12.10
2019-04-21T23:28:56.850Z,8.13
2019-04-21T23:31:46.695Z,11.00
2019-04-21T23:34:10.096Z,9.63
2019-04-21T23:36:58.992Z,10.85
2019-04-21T23:42:29.071Z,10.75
2019-04-21T23:44:59.539Z,10.15
2019-04-21T23:48:00.113Z,9.90
2019-04-21T23:50:26.388Z,8.80
2019-04-21T23:56:25.079Z,10.28
2019-04-21T23:58:51.963Z,10.93
